sensor_id;sensor_type;location;lat;lon;timestamp;pressure;altitude;pressure_sealevel;temperature;humidity
40730;BME280;26418;50.070;8.436;2023-03-21T00:02:07;100241.13;;;8.83;82.79
40730;BME280;26418;50.070;8.436;2023-03-21T00:04:34;100232.50;;;8.80;82.79
40730;BME280;26418;50.070;8.436;2023-03-21T00:07:00;100234.41;;;8.80;82.91
40730;BME280;26418;50.070;8.436;2023-03-21T00:09:25;100231.97;;;8.78;82.82
40730;BME280;26418;50.070;8.436;2023-03-21T00:11:51;100238.97;;;8.79;82.98
40730;BME280;26418;50.070;8.436;2023-03-21T00:14:17;100242.75;;;8.78;82.74
40730;BME280;26418;50.070;8.436;2023-03-21T00:16:46;100236.03;;;8.76;82.80
40730;BME280;26418;50.070;8.436;2023-03-21T00:19:16;100233.63;;;8.74;82.84
40730;BME280;26418;50.070;8.436;2023-03-21T00:21:41;100234.16;;;8.76;82.60
40730;BME280;26418;50.070;8.436;2023-03-21T00:24:08;100235.50;;;8.74;82.72
40730;BME280;26418;50.070;8.436;2023-03-21T00:26:33;100226.63;;;8.73;82.81
40730;BME280;26418;50.070;8.436;2023-03-21T00:29:00;100224.47;;;8.70;82.73
40730;BME280;26418;50.070;8.436;2023-03-21T00:31:25;100214.81;;;8.64;82.69
40730;BME280;26418;50.070;8.436;2023-03-21T00:33:51;100220.75;;;8.66;82.26
40730;BME280;26418;50.070;8.436;2023-03-21T00:36:17;100220.97;;;8.70;81.69
40730;BME280;26418;50.070;8.436;2023-03-21T00:38:42;100222.34;;;8.67;81.43
40730;BME280;26418;50.070;8.436;2023-03-21T00:41:10;100220.22;;;8.64;81.59
40730;BME280;26418;50.070;8.436;2023-03-21T00:43:36;100219.16;;;8.60;81.67
40730;BME280;26418;50.070;8.436;2023-03-21T00:46:02;100216.50;;;8.55;81.75
40730;BME280;26418;50.070;8.436;2023-03-21T00:48:28;100207.84;;;8.58;81.89
40730;BME280;26418;50.070;8.436;2023-03-21T00:50:56;100198.69;;;8.54;81.98
40730;BME280;26418;50.070;8.436;2023-03-21T00:53:24;100201.69;;;8.52;82.33
40730;BME280;26418;50.070;8.436;2023-03-21T00:55:49;100195.47;;;8.46;82.23
40730;BME280;26418;50.070;8.436;2023-03-21T00:58:15;100202.53;;;8.47;82.41
40730;BME280;26418;50.070;8.436;2023-03-21T01:00:41;100199.25;;;8.45;82.44
40730;BME280;26418;50.070;8.436;2023-03-21T01:03:09;100197.69;;;8.39;82.67
40730;BME280;26418;50.070;8.436;2023-03-21T01:05:41;100199.06;;;8.37;82.83
40730;BME280;26418;50.070;8.436;2023-03-21T01:08:25;100199.84;;;8.37;82.70
40730;BME280;26418;50.070;8.436;2023-03-21T01:10:52;100199.06;;;8.37;82.68
40730;BME280;26418;50.070;8.436;2023-03-21T01:13:20;100193.38;;;8.38;82.71
40730;BME280;26418;50.070;8.436;2023-03-21T01:15:49;100195.28;;;8.38;82.64
40730;BME280;26418;50.070;8.436;2023-03-21T01:18:17;100196.59;;;8.40;82.77
40730;BME280;26418;50.070;8.436;2023-03-21T01:20:45;100199.31;;;8.40;82.36
40730;BME280;26418;50.070;8.436;2023-03-21T01:23:13;100193.94;;;8.35;82.07
40730;BME280;26418;50.070;8.436;2023-03-21T01:25:39;100189.34;;;8.36;82.35
40730;BME280;26418;50.070;8.436;2023-03-21T01:28:05;100178.63;;;8.30;82.59
40730;BME280;26418;50.070;8.436;2023-03-21T01:30:30;100183.47;;;8.28;82.72
40730;BME280;26418;50.070;8.436;2023-03-21T01:32:56;100193.69;;;8.31;83.08
40730;BME280;26418;50.070;8.436;2023-03-21T01:35:22;100182.16;;;8.26;83.29
40730;BME280;26418;50.070;8.436;2023-03-21T01:37:48;100177.00;;;8.24;83.71
40730;BME280;26418;50.070;8.436;2023-03-21T01:40:25;100178.94;;;8.18;83.96
40730;BME280;26418;50.070;8.436;2023-03-21T01:42:51;100177.09;;;8.14;84.28
40730;BME280;26418;50.070;8.436;2023-03-21T01:48:20;100161.56;;;7.90;84.77
40730;BME280;26418;50.070;8.436;2023-03-21T01:50:48;100173.69;;;7.87;85.05
40730;BME280;26418;50.070;8.436;2023-03-21T01:53:15;100168.34;;;7.77;85.38
40730;BME280;26418;50.070;8.436;2023-03-21T01:55:41;100170.28;;;7.71;85.58
40730;BME280;26418;50.070;8.436;2023-03-21T01:58:09;100176.47;;;7.62;85.89
40730;BME280;26418;50.070;8.436;2023-03-21T02:00:37;100171.66;;;7.53;86.31
40730;BME280;26418;50.070;8.436;2023-03-21T02:03:05;100173.03;;;7.46;86.68
40730;BME280;26418;50.070;8.436;2023-03-21T02:06:01;100171.41;;;7.39;86.88
40730;BME280;26418;50.070;8.436;2023-03-21T02:08:30;100158.81;;;7.30;87.20
40730;BME280;26418;50.070;8.436;2023-03-21T02:10:56;100158.25;;;7.28;87.80
40730;BME280;26418;50.070;8.436;2023-03-21T02:13:23;100163.66;;;7.22;88.11
40730;BME280;26418;50.070;8.436;2023-03-21T02:15:58;100163.69;;;7.17;88.19
40730;BME280;26418;50.070;8.436;2023-03-21T02:33:59;100140.28;;;7.13;89.61
40730;BME280;26418;50.070;8.436;2023-03-21T02:39:50;100141.09;;;7.08;89.54
40730;BME280;26418;50.070;8.436;2023-03-21T02:44:59;100126.03;;;7.07;89.45
40730;BME280;26418;50.070;8.436;2023-03-21T02:47:41;100130.34;;;7.08;89.03
40730;BME280;26418;50.070;8.436;2023-03-21T02:52:39;100123.34;;;7.07;88.63
40730;BME280;26418;50.070;8.436;2023-03-21T02:55:19;100134.88;;;7.18;88.62
40730;BME280;26418;50.070;8.436;2023-03-21T02:57:47;100133.28;;;7.17;88.32
40730;BME280;26418;50.070;8.436;2023-03-21T03:00:19;100134.03;;;7.28;88.27
40730;BME280;26418;50.070;8.436;2023-03-21T03:02:46;100137.56;;;7.28;87.98
40730;BME280;26418;50.070;8.436;2023-03-21T03:05:20;100143.75;;;7.34;87.83
40730;BME280;26418;50.070;8.436;2023-03-21T03:10:52;100135.38;;;7.35;87.52
40730;BME280;26418;50.070;8.436;2023-03-21T03:18:29;100131.59;;;7.42;87.78
40730;BME280;26418;50.070;8.436;2023-03-21T03:23:44;100132.38;;;7.47;88.01
40730;BME280;26418;50.070;8.436;2023-03-21T03:26:28;100124.28;;;7.52;87.97
40730;BME280;26418;50.070;8.436;2023-03-21T03:28:59;100128.84;;;7.57;87.80
40730;BME280;26418;50.070;8.436;2023-03-21T03:31:32;100122.66;;;7.62;87.67
40730;BME280;26418;50.070;8.436;2023-03-21T03:34:04;100120.44;;;7.69;86.88
40730;BME280;26418;50.070;8.436;2023-03-21T03:36:38;100121.28;;;7.69;86.50
40730;BME280;26418;50.070;8.436;2023-03-21T03:39:10;100116.16;;;7.73;86.74
40730;BME280;26418;50.070;8.436;2023-03-21T03:42:02;100104.88;;;7.66;86.56
40730;BME280;26418;50.070;8.436;2023-03-21T03:44:25;100123.16;;;7.74;86.72
40730;BME280;26418;50.070;8.436;2023-03-21T03:46:55;100116.69;;;7.75;86.73
40730;BME280;26418;50.070;8.436;2023-03-21T03:49:25;100108.59;;;7.75;86.79
40730;BME280;26418;50.070;8.436;2023-03-21T03:51:54;100109.94;;;7.78;86.74
40730;BME280;26418;50.070;8.436;2023-03-21T03:54:46;100111.81;;;7.77;86.57
40730;BME280;26418;50.070;8.436;2023-03-21T03:57:14;100108.84;;;7.74;86.28
40730;BME280;26418;50.070;8.436;2023-03-21T03:59:42;100111.59;;;7.68;86.36
40730;BME280;26418;50.070;8.436;2023-03-21T04:02:08;100108.94;;;7.63;86.81
40730;BME280;26418;50.070;8.436;2023-03-21T04:04:35;100113.75;;;7.66;87.30
40730;BME280;26418;50.070;8.436;2023-03-21T04:07:01;100100.53;;;7.70;87.40
40730;BME280;26418;50.070;8.436;2023-03-21T04:09:28;100104.31;;;7.74;87.14
40730;BME280;26418;50.070;8.436;2023-03-21T04:11:55;100093.53;;;7.74;87.05
40730;BME280;26418;50.070;8.436;2023-03-21T04:14:21;100104.75;;;7.86;86.61
40730;BME280;26418;50.070;8.436;2023-03-21T04:16:46;100096.44;;;7.88;86.45
40730;BME280;26418;50.070;8.436;2023-03-21T04:19:14;100088.34;;;7.88;86.51
40730;BME280;26418;50.070;8.436;2023-03-21T04:21:43;100080.53;;;7.86;86.30
40730;BME280;26418;50.070;8.436;2023-03-21T04:24:09;100101.00;;;7.87;86.34
40730;BME280;26418;50.070;8.436;2023-03-21T04:26:36;100098.59;;;7.86;86.59
40730;BME280;26418;50.070;8.436;2023-03-21T04:29:02;100109.63;;;7.84;86.82
40730;BME280;26418;50.070;8.436;2023-03-21T04:31:29;100100.78;;;7.79;86.96
40730;BME280;26418;50.070;8.436;2023-03-21T04:34:03;100108.59;;;7.75;87.28
40730;BME280;26418;50.070;8.436;2023-03-21T04:36:35;100117.75;;;7.69;87.63
40730;BME280;26418;50.070;8.436;2023-03-21T04:39:08;100112.94;;;7.61;87.79
40730;BME280;26418;50.070;8.436;2023-03-21T04:41:40;100110.03;;;7.52;88.31
40730;BME280;26418;50.070;8.436;2023-03-21T04:44:07;100113.56;;;7.47;88.81
40730;BME280;26418;50.070;8.436;2023-03-21T04:46:33;100108.44;;;7.40;89.03
40730;BME280;26418;50.070;8.436;2023-03-21T04:49:00;100112.78;;;7.36;89.58
40730;BME280;26418;50.070;8.436;2023-03-21T04:51:25;100110.34;;;7.35;89.59
40730;BME280;26418;50.070;8.436;2023-03-21T04:53:51;100109.31;;;7.31;89.87
40730;BME280;26418;50.070;8.436;2023-03-21T04:56:23;100107.97;;;7.28;90.01
40730;BME280;26418;50.070;8.436;2023-03-21T04:58:55;100101.25;;;7.26;90.26
40730;BME280;26418;50.070;8.436;2023-03-21T05:01:21;100099.91;;;7.23;90.55
40730;BME280;26418;50.070;8.436;2023-03-21T05:03:47;100096.94;;;7.24;90.65
40730;BME280;26418;50.070;8.436;2023-03-21T05:06:12;100101.75;;;7.28;90.64
40730;BME280;26418;50.070;8.436;2023-03-21T05:08:38;100098.28;;;7.27;90.98
40730;BME280;26418;50.070;8.436;2023-03-21T05:11:04;100098.25;;;7.32;90.86
40730;BME280;26418;50.070;8.436;2023-03-21T05:13:29;100100.41;;;7.35;90.69
40730;BME280;26418;50.070;8.436;2023-03-21T05:15:55;100083.75;;;7.28;90.49
40730;BME280;26418;50.070;8.436;2023-03-21T05:18:21;100095.56;;;7.37;90.63
40730;BME280;26418;50.070;8.436;2023-03-21T05:20:52;100093.91;;;7.42;90.35
40730;BME280;26418;50.070;8.436;2023-03-21T05:23:21;100091.78;;;7.44;90.02
40730;BME280;26418;50.070;8.436;2023-03-21T05:25:47;100094.72;;;7.47;90.38
40730;BME280;26418;50.070;8.436;2023-03-21T05:28:12;100088.72;;;7.66;93.67
40730;BME280;26418;50.070;8.436;2023-03-21T05:30:38;100086.69;;;7.97;97.89
40730;BME280;26418;50.070;8.436;2023-03-21T05:33:04;100094.50;;;8.33;100.00
40730;BME280;26418;50.070;8.436;2023-03-21T05:35:29;100085.69;;;8.62;100.00
40730;BME280;26418;50.070;8.436;2023-03-21T05:37:56;100088.91;;;8.94;100.00
40730;BME280;26418;50.070;8.436;2023-03-21T05:40:21;100076.19;;;9.24;99.71
40730;BME280;26418;50.070;8.436;2023-03-21T05:42:47;100086.16;;;9.48;95.82
40730;BME280;26418;50.070;8.436;2023-03-21T05:45:14;100080.19;;;9.51;92.72
40730;BME280;26418;50.070;8.436;2023-03-21T05:47:39;100080.22;;;9.46;91.32
40730;BME280;26418;50.070;8.436;2023-03-21T05:50:05;100080.09;;;9.37;90.44
40730;BME280;26418;50.070;8.436;2023-03-21T05:52:31;100076.97;;;9.24;89.55
40730;BME280;26418;50.070;8.436;2023-03-21T05:54:57;100079.56;;;9.10;89.21
40730;BME280;26418;50.070;8.436;2023-03-21T05:57:23;100084.22;;;9.05;88.72
40730;BME280;26418;50.070;8.436;2023-03-21T05:59:49;100078.13;;;8.94;88.86
40730;BME280;26418;50.070;8.436;2023-03-21T06:02:14;100088.91;;;8.94;89.07
40730;BME280;26418;50.070;8.436;2023-03-21T06:04:40;100085.69;;;8.92;89.73
40730;BME280;26418;50.070;8.436;2023-03-21T06:07:06;100081.94;;;8.88;91.18
40730;BME280;26418;50.070;8.436;2023-03-21T06:09:31;100093.09;;;9.05;93.08
40730;BME280;26418;50.070;8.436;2023-03-21T06:11:58;100088.28;;;9.26;96.28
40730;BME280;26418;50.070;8.436;2023-03-21T06:14:24;100096.53;;;9.59;97.59
40730;BME280;26418;50.070;8.436;2023-03-21T06:16:50;100085.06;;;9.92;95.45
40730;BME280;26418;50.070;8.436;2023-03-21T06:19:18;100084.59;;;10.23;91.44
40730;BME280;26418;50.070;8.436;2023-03-21T06:21:45;100081.75;;;10.33;89.10
40730;BME280;26418;50.070;8.436;2023-03-21T06:24:11;100087.72;;;10.30;86.37
40730;BME280;26418;50.070;8.436;2023-03-21T06:26:36;100078.69;;;10.21;84.41
40730;BME280;26418;50.070;8.436;2023-03-21T06:29:02;100084.31;;;10.05;82.20
40730;BME280;26418;50.070;8.436;2023-03-21T06:31:28;100085.09;;;9.87;81.61
40730;BME280;26418;50.070;8.436;2023-03-21T06:33:53;100077.22;;;9.71;81.36
40730;BME280;26418;50.070;8.436;2023-03-21T06:36:19;100077.38;;;9.61;81.63
40730;BME280;26418;50.070;8.436;2023-03-21T06:38:45;100080.63;;;9.58;81.51
40730;BME280;26418;50.070;8.436;2023-03-21T06:41:11;100090.91;;;9.56;81.53
40730;BME280;26418;50.070;8.436;2023-03-21T06:43:37;100090.41;;;9.54;81.28
40730;BME280;26418;50.070;8.436;2023-03-21T06:46:03;100073.09;;;9.55;81.50
40730;BME280;26418;50.070;8.436;2023-03-21T06:48:30;100068.31;;;9.52;81.31
40730;BME280;26418;50.070;8.436;2023-03-21T06:50:55;100083.34;;;9.58;81.11
40730;BME280;26418;50.070;8.436;2023-03-21T06:53:23;100077.13;;;9.57;80.95
40730;BME280;26418;50.070;8.436;2023-03-21T06:55:52;100083.34;;;9.58;80.93
40730;BME280;26418;50.070;8.436;2023-03-21T06:58:18;100088.66;;;9.63;80.82
40730;BME280;26418;50.070;8.436;2023-03-21T07:00:43;100092.31;;;9.72;80.86
40730;BME280;26418;50.070;8.436;2023-03-21T07:03:10;100083.00;;;9.84;80.16
40730;BME280;26418;50.070;8.436;2023-03-21T07:05:36;100085.50;;;9.99;79.89
40730;BME280;26418;50.070;8.436;2023-03-21T07:08:02;100095.56;;;10.13;80.47
40730;BME280;26418;50.070;8.436;2023-03-21T07:10:28;100098.06;;;10.28;80.19
40730;BME280;26418;50.070;8.436;2023-03-21T07:12:54;100090.81;;;10.43;79.49
40730;BME280;26418;50.070;8.436;2023-03-21T07:15:20;100091.75;;;10.52;79.02
40730;BME280;26418;50.070;8.436;2023-03-21T07:17:46;100088.44;;;10.55;78.53
40730;BME280;26418;50.070;8.436;2023-03-21T07:20:11;100101.38;;;10.58;76.69
40730;BME280;26418;50.070;8.436;2023-03-21T07:22:38;100098.38;;;10.60;75.85
40730;BME280;26418;50.070;8.436;2023-03-21T07:25:04;100097.63;;;10.73;74.22
40730;BME280;26418;50.070;8.436;2023-03-21T07:27:30;100093.41;;;10.81;73.24
40730;BME280;26418;50.070;8.436;2023-03-21T07:29:56;100098.66;;;10.91;72.29
40730;BME280;26418;50.070;8.436;2023-03-21T07:32:22;100103.19;;;10.96;70.15
40730;BME280;26418;50.070;8.436;2023-03-21T07:34:47;100100.38;;;11.01;69.37
40730;BME280;26418;50.070;8.436;2023-03-21T07:37:13;100101.59;;;11.09;69.89
40730;BME280;26418;50.070;8.436;2023-03-21T07:39:40;100097.50;;;11.25;69.11
40730;BME280;26418;50.070;8.436;2023-03-21T07:42:07;100100.50;;;11.38;69.28
40730;BME280;26418;50.070;8.436;2023-03-21T07:44:33;100104.59;;;11.49;67.34
40730;BME280;26418;50.070;8.436;2023-03-21T07:46:58;100103.50;;;11.50;66.33
40730;BME280;26418;50.070;8.436;2023-03-21T07:49:24;100089.38;;;11.53;66.78
40730;BME280;26418;50.070;8.436;2023-03-21T07:51:51;100085.53;;;11.54;66.64
40730;BME280;26418;50.070;8.436;2023-03-21T07:54:16;100084.44;;;11.55;67.04
40730;BME280;26418;50.070;8.436;2023-03-21T07:56:45;100103.91;;;11.71;67.08
40730;BME280;26418;50.070;8.436;2023-03-21T07:59:10;100106.78;;;11.89;65.73
40730;BME280;26418;50.070;8.436;2023-03-21T08:01:36;100096.53;;;12.00;65.19
40730;BME280;26418;50.070;8.436;2023-03-21T08:04:02;100094.69;;;12.09;64.40
40730;BME280;26418;50.070;8.436;2023-03-21T08:06:27;100100.63;;;12.11;63.92
40730;BME280;26418;50.070;8.436;2023-03-21T08:08:53;100092.94;;;12.27;65.94
40730;BME280;26418;50.070;8.436;2023-03-21T08:11:19;100091.63;;;12.47;65.12
40730;BME280;26418;50.070;8.436;2023-03-21T08:13:46;100092.63;;;12.51;62.33
40730;BME280;26418;50.070;8.436;2023-03-21T08:16:12;100096.22;;;12.61;62.33
40730;BME280;26418;50.070;8.436;2023-03-21T08:18:37;100081.53;;;12.62;62.40
40730;BME280;26418;50.070;8.436;2023-03-21T08:21:03;100093.41;;;12.74;62.56
40730;BME280;26418;50.070;8.436;2023-03-21T08:23:28;100090.13;;;12.86;62.32
40730;BME280;26418;50.070;8.436;2023-03-21T08:25:55;100088.56;;;12.94;62.08
40730;BME280;26418;50.070;8.436;2023-03-21T08:28:21;100098.81;;;13.06;61.87
40730;BME280;26418;50.070;8.436;2023-03-21T08:30:48;100095.50;;;13.09;61.57
40730;BME280;26418;50.070;8.436;2023-03-21T08:33:14;100094.34;;;13.01;60.05
40730;BME280;26418;50.070;8.436;2023-03-21T08:35:40;100094.97;;;12.98;60.89
40730;BME280;26418;50.070;8.436;2023-03-21T08:38:06;100105.25;;;12.79;60.32
40730;BME280;26418;50.070;8.436;2023-03-21T08:40:32;100097.84;;;12.70;61.41
40730;BME280;26418;50.070;8.436;2023-03-21T08:42:58;100099.78;;;12.70;61.73
40730;BME280;26418;50.070;8.436;2023-03-21T08:45:24;100100.47;;;12.76;60.82
40730;BME280;26418;50.070;8.436;2023-03-21T08:47:51;100092.50;;;12.79;60.52
40730;BME280;26418;50.070;8.436;2023-03-21T08:50:22;100090.75;;;12.83;60.60
40730;BME280;26418;50.070;8.436;2023-03-21T08:52:49;100092.38;;;12.93;60.85
40730;BME280;26418;50.070;8.436;2023-03-21T08:55:15;100093.78;;;13.13;60.83
40730;BME280;26418;50.070;8.436;2023-03-21T08:57:42;100101.31;;;13.25;60.25
40730;BME280;26418;50.070;8.436;2023-03-21T09:00:11;100100.06;;;13.31;60.05
40730;BME280;26418;50.070;8.436;2023-03-21T09:02:41;100093.56;;;13.41;59.95
40730;BME280;26418;50.070;8.436;2023-03-21T09:05:09;100089.41;;;13.44;58.27
40730;BME280;26418;50.070;8.436;2023-03-21T09:07:37;100091.75;;;13.36;57.97
40730;BME280;26418;50.070;8.436;2023-03-21T09:10:05;100096.09;;;13.37;58.25
40730;BME280;26418;50.070;8.436;2023-03-21T09:12:32;100101.19;;;13.30;58.04
40730;BME280;26418;50.070;8.436;2023-03-21T09:14:58;100097.13;;;13.19;58.50
40730;BME280;26418;50.070;8.436;2023-03-21T09:17:24;100097.25;;;13.05;58.37
40730;BME280;26418;50.070;8.436;2023-03-21T09:19:49;100105.19;;;13.01;59.05
40730;BME280;26418;50.070;8.436;2023-03-21T09:22:17;100104.91;;;13.03;60.00
40730;BME280;26418;50.070;8.436;2023-03-21T09:24:48;100102.03;;;13.08;60.59
40730;BME280;26418;50.070;8.436;2023-03-21T09:27:15;100097.31;;;13.23;61.47
40730;BME280;26418;50.070;8.436;2023-03-21T09:29:48;100103.41;;;13.28;60.19
40730;BME280;26418;50.070;8.436;2023-03-21T09:32:14;100101.66;;;13.32;59.85
40730;BME280;26418;50.070;8.436;2023-03-21T09:34:40;100100.78;;;13.46;59.84
40730;BME280;26418;50.070;8.436;2023-03-21T09:37:07;100095.22;;;13.60;59.92
40730;BME280;26418;50.070;8.436;2023-03-21T09:39:40;100101.94;;;13.54;58.53
40730;BME280;26418;50.070;8.436;2023-03-21T09:47:49;100097.84;;;13.91;58.79
40730;BME280;26418;50.070;8.436;2023-03-21T09:50:34;100099.13;;;14.11;59.12
40730;BME280;26418;50.070;8.436;2023-03-21T09:55:40;100096.69;;;14.45;59.39
40730;BME280;26418;50.070;8.436;2023-03-21T10:00:51;100092.88;;;14.55;58.96
40730;BME280;26418;50.070;8.436;2023-03-21T10:03:29;100094.47;;;14.47;58.49
40730;BME280;26418;50.070;8.436;2023-03-21T10:05:59;100088.22;;;14.46;58.24
40730;BME280;26418;50.070;8.436;2023-03-21T10:08:33;100086.47;;;14.42;58.87
40730;BME280;26418;50.070;8.436;2023-03-21T10:11:20;100092.03;;;14.54;58.84
40730;BME280;26418;50.070;8.436;2023-03-21T10:13:54;100077.50;;;14.41;57.69
40730;BME280;26418;50.070;8.436;2023-03-21T10:18:54;100086.00;;;14.40;58.24
40730;BME280;26418;50.070;8.436;2023-03-21T10:21:25;100085.03;;;14.27;58.45
40730;BME280;26418;50.070;8.436;2023-03-21T10:23:54;100086.00;;;14.13;58.52
40730;BME280;26418;50.070;8.436;2023-03-21T10:26:24;100085.53;;;13.94;59.70
40730;BME280;26418;50.070;8.436;2023-03-21T10:28:54;100082.31;;;13.83;60.81
40730;BME280;26418;50.070;8.436;2023-03-21T10:31:24;100091.41;;;13.70;61.95
40730;BME280;26418;50.070;8.436;2023-03-21T10:33:52;100094.28;;;13.56;62.79
40730;BME280;26418;50.070;8.436;2023-03-21T10:36:26;100084.63;;;13.41;63.79
40730;BME280;26418;50.070;8.436;2023-03-21T10:39:05;100084.25;;;13.33;64.89
40730;BME280;26418;50.070;8.436;2023-03-21T10:41:32;100097.66;;;13.30;65.78
40730;BME280;26418;50.070;8.436;2023-03-21T10:46:31;100093.13;;;13.16;65.44
40730;BME280;26418;50.070;8.436;2023-03-21T10:48:58;100096.63;;;13.08;65.63
40730;BME280;26418;50.070;8.436;2023-03-21T10:51:29;100095.66;;;13.04;64.28
40730;BME280;26418;50.070;8.436;2023-03-21T10:54:03;100093.69;;;12.96;65.06
40730;BME280;26418;50.070;8.436;2023-03-21T10:56:33;100086.44;;;12.82;65.66
40730;BME280;26418;50.070;8.436;2023-03-21T10:59:00;100094.38;;;12.79;65.96
40730;BME280;26418;50.070;8.436;2023-03-21T11:01:35;100097.53;;;12.72;66.36
40730;BME280;26418;50.070;8.436;2023-03-21T11:04:09;100102.00;;;12.68;66.22
40730;BME280;26418;50.070;8.436;2023-03-21T11:06:40;100102.38;;;12.52;66.18
40730;BME280;26418;50.070;8.436;2023-03-21T11:09:17;100094.13;;;12.35;67.65
40730;BME280;26418;50.070;8.436;2023-03-21T11:16:51;100088.59;;;12.26;69.44
40730;BME280;26418;50.070;8.436;2023-03-21T11:19:35;100093.59;;;12.10;69.81
40730;BME280;26418;50.070;8.436;2023-03-21T11:22:06;100088.59;;;12.03;70.59
40730;BME280;26418;50.070;8.436;2023-03-21T11:24:32;100094.94;;;11.85;71.21
40730;BME280;26418;50.070;8.436;2023-03-21T11:27:05;100091.06;;;11.63;72.12
40730;BME280;26418;50.070;8.436;2023-03-21T11:29:36;100097.91;;;11.46;72.55
40730;BME280;26418;50.070;8.436;2023-03-21T11:35:03;100079.66;;;11.24;74.50
40730;BME280;26418;50.070;8.436;2023-03-21T11:42:42;100086.06;;;11.28;75.79
40730;BME280;26418;50.070;8.436;2023-03-21T11:45:12;100084.34;;;11.19;75.45
40730;BME280;26418;50.070;8.436;2023-03-21T11:47:39;100077.03;;;11.19;76.29
40730;BME280;26418;50.070;8.436;2023-03-21T11:50:37;100073.91;;;11.26;76.68
40730;BME280;26418;50.070;8.436;2023-03-21T12:06:37;100043.09;;;12.37;73.48
40730;BME280;26418;50.070;8.436;2023-03-21T12:09:33;100043.53;;;12.62;72.85
40730;BME280;26418;50.070;8.436;2023-03-21T12:12:08;100039.41;;;12.64;70.11
40730;BME280;26418;50.070;8.436;2023-03-21T12:17:42;100035.75;;;12.69;70.09
40730;BME280;26418;50.070;8.436;2023-03-21T12:26:00;100020.91;;;12.66;69.64
40730;BME280;26418;50.070;8.436;2023-03-21T12:39:38;100011.69;;;12.45;70.53
40730;BME280;26418;50.070;8.436;2023-03-21T12:44:58;100007.31;;;12.35;72.31
40730;BME280;26418;50.070;8.436;2023-03-21T12:47:28;100002.34;;;12.28;72.98
40730;BME280;26418;50.070;8.436;2023-03-21T12:50:12;100001.38;;;12.24;74.00
40730;BME280;26418;50.070;8.436;2023-03-21T12:52:43;100000.69;;;12.18;74.25
40730;BME280;26418;50.070;8.436;2023-03-21T12:57:51;99992.06;;;12.16;75.22
40730;BME280;26418;50.070;8.436;2023-03-21T13:00:30;99982.03;;;12.17;75.40
40730;BME280;26418;50.070;8.436;2023-03-21T13:03:04;99984.91;;;12.20;75.50
40730;BME280;26418;50.070;8.436;2023-03-21T13:05:34;99975.84;;;12.25;75.72
40730;BME280;26418;50.070;8.436;2023-03-21T13:11:06;99973.50;;;12.32;75.66
40730;BME280;26418;50.070;8.436;2023-03-21T13:16:22;99982.41;;;12.33;76.40
40730;BME280;26418;50.070;8.436;2023-03-21T13:21:31;99975.78;;;12.16;76.54
40730;BME280;26418;50.070;8.436;2023-03-21T13:24:14;99974.81;;;12.12;76.97
40730;BME280;26418;50.070;8.436;2023-03-21T13:26:44;99975.91;;;12.11;77.10
40730;BME280;26418;50.070;8.436;2023-03-21T13:29:24;99972.22;;;12.07;77.82
40730;BME280;26418;50.070;8.436;2023-03-21T13:31:53;99974.25;;;12.01;78.75
40730;BME280;26418;50.070;8.436;2023-03-21T13:34:22;99975.13;;;11.96;78.99
40730;BME280;26418;50.070;8.436;2023-03-21T13:36:49;99966.63;;;11.89;80.01
40730;BME280;26418;50.070;8.436;2023-03-21T13:39:23;99964.97;;;11.79;80.07
40730;BME280;26418;50.070;8.436;2023-03-21T13:41:49;99957.41;;;11.68;80.20
40730;BME280;26418;50.070;8.436;2023-03-21T13:44:56;99955.78;;;11.67;81.81
40730;BME280;26418;50.070;8.436;2023-03-21T13:47:53;99963.00;;;11.71;82.51
40730;BME280;26418;50.070;8.436;2023-03-21T13:50:23;99943.72;;;11.73;83.30
40730;BME280;26418;50.070;8.436;2023-03-21T13:55:28;99943.13;;;11.76;83.68
40730;BME280;26418;50.070;8.436;2023-03-21T13:57:54;99942.69;;;11.83;84.47
40730;BME280;26418;50.070;8.436;2023-03-21T14:00:28;99937.75;;;11.85;84.52
40730;BME280;26418;50.070;8.436;2023-03-21T14:03:07;99942.75;;;11.91;84.88
40730;BME280;26418;50.070;8.436;2023-03-21T14:05:33;99936.22;;;11.92;85.44
40730;BME280;26418;50.070;8.436;2023-03-21T14:08:05;99939.13;;;11.96;84.96
40730;BME280;26418;50.070;8.436;2023-03-21T14:10:38;99928.28;;;11.96;85.11
40730;BME280;26418;50.070;8.436;2023-03-21T14:13:07;99929.38;;;11.95;84.40
40730;BME280;26418;50.070;8.436;2023-03-21T14:15:43;99924.28;;;11.93;83.94
40730;BME280;26418;50.070;8.436;2023-03-21T14:18:15;99916.94;;;11.94;84.47
40730;BME280;26418;50.070;8.436;2023-03-21T14:20:41;99920.66;;;11.98;84.41
40730;BME280;26418;50.070;8.436;2023-03-21T14:23:13;99918.22;;;11.96;84.53
40730;BME280;26418;50.070;8.436;2023-03-21T14:25:39;99915.03;;;11.94;84.24
40730;BME280;26418;50.070;8.436;2023-03-21T14:28:22;99912.00;;;11.96;84.71
40730;BME280;26418;50.070;8.436;2023-03-21T14:30:51;99911.13;;;12.01;84.68
40730;BME280;26418;50.070;8.436;2023-03-21T14:33:34;99896.34;;;11.93;82.81
40730;BME280;26418;50.070;8.436;2023-03-21T14:36:08;99885.63;;;11.79;83.19
40730;BME280;26418;50.070;8.436;2023-03-21T14:38:37;99893.84;;;11.74;83.53
40730;BME280;26418;50.070;8.436;2023-03-21T14:41:03;99897.31;;;11.66;84.64
40730;BME280;26418;50.070;8.436;2023-03-21T14:43:29;99886.28;;;11.62;85.25
40730;BME280;26418;50.070;8.436;2023-03-21T14:45:59;99882.47;;;11.63;85.92
40730;BME280;26418;50.070;8.436;2023-03-21T14:48:30;99870.03;;;11.62;86.26
40730;BME280;26418;50.070;8.436;2023-03-21T14:51:00;99891.69;;;11.62;86.13
40730;BME280;26418;50.070;8.436;2023-03-21T14:53:37;99890.78;;;11.67;86.67
40730;BME280;26418;50.070;8.436;2023-03-21T14:56:09;99885.91;;;11.77;87.27
40730;BME280;26418;50.070;8.436;2023-03-21T14:58:40;99878.59;;;11.78;86.19
40730;BME280;26418;50.070;8.436;2023-03-21T15:01:13;99898.78;;;11.94;85.56
40730;BME280;26418;50.070;8.436;2023-03-21T15:03:39;99890.03;;;11.98;84.40